الصفحة الرئيسية
METAR-TAF:

METAR-TAF

مطار :

وان, تركيا

دائرة عرض: 38-27N, خط طول: 043-19E, ارتفاع: 1667 متر

مراقبة الطقس الحالي

تاريخ ووقت الإصدار 40 دقيقة قبل الساعة 19:50UTC
ريح 2 عقدة من الشرق/الشمال الشرقي
درجة الحرارة -1°درجة مئوية
الرطوبة 86%
ضغط 1026 hPa
الرؤية 10 كم أو أكثر
غيوم قليلة على ارتفاع 4000 قدم

METAR: LTCI 041950Z 07002KT 9999 FEW040 M01/M03 Q1026 NOSIG

زمن: 23:30 (20:30 UTC)

توقعات

تاريخ ووقت الإصدار 3ساعات و 50 دقيقة قبل الساعة 16:40UTC
التوقعات صالحة من04 الساعة 18 UTC إلى 05 الساعة 03 UTC
ريح 2 عقدةمن اتجاهات متغيرة
الرؤية: 7000 متر
غيوم قليلة على ارتفاع 4000 قدم
غيوم متفرقة على ارتفاع 18000 قدم

TAF: LTCI 041640Z 0418/0503 VRB02KT 7000 FEW040 SCT180

أرصاد الطقس والتوقعات من أكثر من 4000 مطار (تقارير الطقس للمطار METAR والتنبؤ بالطقس بالمطارTAF).

المحطات المتاحة هي النقط الصفراء والحمراء على الخريطة.

حرك المؤشر فوق النقطة لمعرفة اسم المحطة.

ثم انقر لمعرفة أرصاد وتوقعات الطقس.

لتغيير الخارطة: اضغط على الأزرار الخضراء مع رمز الصليب الأسود للتكبير. على الزر الأخضر مع شرطة للتصغير، أو على الأسهم الخضراء للخرائط المجاورة.


METAR-TAF: